Time;durP1;ratioP1;P1;durP2;ratioP2;P2;SDS_P1;SDS_P2;PMS_P1;PMS_P2;Temp;Humidity;BMP_temperature;BMP_pressure;BME280_temperature;BME280_humidity;BME280_pressure;Samples;Min_cycle;Max_cycle;Signal;HPM_P1;HPM_P2
2022/09/10 00:01:17;;;;;;;0.67;0.57;;;;;;;15.33;100.00;99916.75;5041823;28;20456;-51
2022/09/10 00:03:44;;;;;;;0.40;0.30;;;;;;;15.12;100.00;99913.41;5044657;28;20452;-51
2022/09/10 00:06:11;;;;;;;0.50;0.40;;;;;;;15.03;100.00;99913.91;5040995;28;20503;-50
2022/09/10 00:08:38;;;;;;;11.43;1.73;;;;;;;14.95;100.00;99908.09;5046441;28;20463;-50
2022/09/10 00:11:08;;;;;;;0.50;0.30;;;;;;;14.55;100.00;99901.28;5046015;28;20455;-51
2022/09/10 00:13:38;;;;;;;0.50;0.30;;;;;;;14.90;100.00;99905.66;5047232;28;20447;-50
2022/09/10 00:16:08;;;;;;;0.80;0.73;;;;;;;15.07;100.00;99913.66;5041888;28;20458;-50
2022/09/10 00:18:36;;;;;;;4.10;0.60;;;;;;;15.15;100.00;99915.94;5048396;28;20490;-50
2022/09/10 00:21:06;;;;;;;0.50;0.33;;;;;;;15.11;100.00;99914.38;5043233;28;20450;-50
2022/09/10 00:23:33;;;;;;;0.70;0.50;;;;;;;15.17;100.00;99908.69;5030775;28;20448;-50
2022/09/10 00:26:09;;;;;;;0.40;0.30;;;;;;;15.24;100.00;99919.94;5044297;28;20455;-50
2022/09/10 00:28:35;;;;;;;0.60;0.40;;;;;;;15.30;100.00;99916.91;5048710;28;20457;-50
2022/09/10 00:31:02;;;;;;;0.50;0.40;;;;;;;15.26;100.00;99916.22;5048911;28;20450;-50
2022/09/10 00:33:29;;;;;;;1.73;0.43;;;;;;;15.18;100.00;99912.22;5039310;28;20477;-50
2022/09/10 00:35:56;;;;;;;0.70;0.50;;;;;;;15.25;100.00;99914.50;5036783;28;20514;-50
2022/09/10 00:38:23;;;;;;;3.77;0.50;;;;;;;15.10;100.00;99910.81;5050089;28;20588;-50
2022/09/10 00:40:49;;;;;;;4.93;0.40;;;;;;;15.20;100.00;99905.81;5047718;28;20463;-50
2022/09/10 00:43:19;;;;;;;0.70;0.47;;;;;;;14.85;100.00;99904.16;5044222;28;20516;-50
2022/09/10 00:45:50;;;;;;;0.80;0.67;;;;;;;15.05;100.00;99894.13;5037248;28;20868;-50
2022/09/10 00:48:21;;;;;;;0.60;0.40;;;;;;;15.21;100.00;99902.19;5049932;28;20869;-50
2022/09/10 00:50:50;;;;;;;5.30;0.40;;;;;;;15.16;100.00;99895.38;5037138;28;20454;-50
2022/09/10 00:53:21;;;;;;;1.13;0.87;;;;;;;15.00;100.00;99903.38;5038179;28;20458;-50
2022/09/10 00:55:52;;;;;;;2.50;1.13;;;;;;;15.04;100.00;99908.47;5043644;28;20501;-50
2022/09/10 00:58:21;;;;;;;1.10;1.10;;;;;;;15.32;100.00;99912.34;5043473;28;20451;-50
2022/09/10 01:00:47;;;;;;;1.50;1.00;;;;;;;15.36;100.00;99901.41;5042967;28;20500;-50
2022/09/10 01:03:15;;;;;;;3.10;0.87;;;;;;;15.34;100.00;99908.63;5043600;28;20498;-50
2022/09/10 01:05:46;;;;;;;1.10;1.00;;;;;;;15.37;100.00;99905.81;5035594;28;21083;-50
2022/09/10 01:08:14;;;;;;;1.03;1.00;;;;;;;15.35;100.00;99909.50;5048601;28;20536;-50
2022/09/10 01:10:55;;;;;;;0.93;0.70;;;;;;;15.25;100.00;99902.91;5037972;28;20459;-51
2022/09/10 01:13:37;;;;;;;2.20;1.47;;;;;;;15.05;100.00;99906.66;5036284;28;20451;-50
2022/09/10 01:16:23;;;;;;;1.03;0.93;;;;;;;15.17;100.00;99911.34;5049773;28;20808;-50
2022/09/10 01:18:58;;;;;;;0.80;0.80;;;;;;;15.31;100.00;99914.16;5038194;28;20491;-49
2022/09/10 01:21:45;;;;;;;1.57;0.93;;;;;;;15.31;100.00;99914.16;5043285;28;20445;-50
2022/09/10 01:24:53;;;;;;;1.40;1.30;;;;;;;15.45;100.00;99912.53;5044974;28;20478;-49
2022/09/10 01:27:25;;;;;;;9.23;0.87;;;;;;;15.49;100.00;99923.03;5036979;28;20494;-50
2022/09/10 01:30:06;;;;;;;1.67;0.60;;;;;;;15.61;100.00;99914.31;5036055;28;20500;-51
2022/09/10 01:32:44;;;;;;;0.87;0.60;;;;;;;15.62;100.00;99921.44;5045680;28;20512;-51
2022/09/10 01:35:21;;;;;;;0.70;0.57;;;;;;;15.61;100.00;99914.31;5047204;28;20451;-50
2022/09/10 01:37:53;;;;;;;0.90;0.80;;;;;;;15.62;100.00;99918.75;5045092;28;20467;-51
2022/09/10 01:40:28;;;;;;;1.27;1.17;;;;;;;15.72;100.00;99916.41;5041532;28;21310;-50
2022/09/10 01:43:00;;;;;;;1.13;1.03;;;;;;;15.41;100.00;99917.22;5035523;28;20463;-50
2022/09/10 01:45:27;;;;;;;1.90;1.00;;;;;;;15.55;100.00;99911.09;5043237;28;20470;-51
2022/09/10 01:48:15;;;;;;;0.70;0.70;;;;;;;15.46;100.00;99915.13;5041601;28;20492;-51
2022/09/10 01:50:57;;;;;;;0.93;0.80;;;;;;;15.76;100.00;99914.41;5042696;28;20895;-50
2022/09/10 01:53:59;;;;;;;5.47;1.30;;;;;;;15.59;100.00;99921.56;5042508;28;20508;-51
2022/09/10 01:56:48;;;;;;;0.87;0.60;;;;;;;15.75;100.00;99918.03;5030640;28;20543;-50
2022/09/10 01:59:40;;;;;;;1.07;0.97;;;;;;;15.72;100.00;99916.41;5041031;28;20459;-50
2022/09/10 02:02:36;;;;;;;1.10;1.00;;;;;;;15.89;100.00;99905.59;5042604;28;20448;-50
2022/09/10 02:05:05;;;;;;;1.90;1.43;;;;;;;15.79;100.00;99900.88;5023824;28;20459;-50
2022/09/10 02:07:34;;;;;;;0.60;0.47;;;;;;;15.73;100.00;99894.00;5037942;28;20991;-50
2022/09/10 02:10:04;;;;;;;1.20;0.50;;;;;;;15.44;100.00;99892.94;5035475;28;20455;-51
2022/09/10 02:12:30;;;;;;;0.70;0.70;;;;;;;15.53;100.00;99897.78;5038712;28;21026;-50
2022/09/10 02:14:57;;;;;;;0.60;0.47;;;;;;;15.68;100.00;99888.06;5044869;28;20454;-50
2022/09/10 02:17:34;;;;;;;1.13;0.57;;;;;;;15.63;100.00;99882.97;5038843;28;20472;-50
2022/09/10 02:20:03;;;;;;;2.00;0.80;;;;;;;15.68;100.00;99880.03;5042525;28;20513;-50
2022/09/10 02:22:35;;;;;;;0.70;0.70;;;;;;;15.76;100.00;99879.56;5056617;28;20446;-50
2022/09/10 02:25:03;;;;;;;2.40;0.73;;;;;;;15.58;100.00;99876.94;5038638;28;20462;-50
2022/09/10 02:27:30;;;;;;;0.73;0.73;;;;;;;15.71;100.00;99877.16;5044713;28;20490;-50
2022/09/10 02:29:56;;;;;;;0.73;0.73;;;;;;;15.81;100.00;99875.69;5035281;28;20455;-51
2022/09/10 02:32:23;;;;;;;1.07;0.87;;;;;;;15.94;100.00;99879.41;5036032;28;20448;-50
2022/09/10 02:34:49;;;;;;;0.80;0.80;;;;;;;15.89;100.00;99875.25;5048207;28;20485;-50
2022/09/10 02:37:16;;;;;;;0.87;0.77;;;;;;;16.06;100.00;99885.88;5035690;28;20463;-50
2022/09/10 02:39:43;;;;;;;4.43;1.60;;;;;;;16.06;100.00;99885.03;5042311;28;20525;-50
2022/09/10 02:42:11;;;;;;;2.40;1.10;;;;;;;16.04;100.00;99890.47;5041677;28;20914;-50
2022/09/10 02:44:37;;;;;;;1.50;1.40;;;;;;;16.08;100.00;99883.13;5035107;28;20952;-50
2022/09/10 02:47:05;;;;;;;4.00;1.20;;;;;;;16.02;100.00;99891.50;5048257;28;20490;-51
2022/09/10 02:49:32;;;;;;;2.53;1.07;;;;;;;16.05;100.00;99889.53;5035733;28;20454;-50
2022/09/10 02:52:01;;;;;;;1.30;0.90;;;;;;;16.09;100.00;99891.06;5045411;28;20454;-50
2022/09/10 02:54:28;;;;;;;2.90;1.10;;;;;;;16.09;100.00;99898.25;5032290;28;20511;-50
2022/09/10 02:56:55;;;;;;;1.43;0.73;;;;;;;16.07;100.00;99897.47;5047812;28;20544;-49
2022/09/10 02:59:23;;;;;;;1.23;1.13;;;;;;;16.13;100.00;99895.28;5036089;28;20607;-50
2022/09/10 03:01:49;;;;;;;1.20;1.10;;;;;;;16.17;100.00;99902.22;5035036;28;20455;-50
2022/09/10 03:04:16;;;;;;;21.27;2.03;;;;;;;16.11;100.00;99896.34;5042352;28;20852;-49
2022/09/10 03:06:43;;;;;;;5.03;2.20;;;;;;;16.07;100.00;99901.03;5046857;28;20475;-49
2022/09/10 03:09:10;;;;;;;1.43;1.20;;;;;;;16.10;100.00;99898.16;5036607;28;20508;-49
2022/09/10 03:11:39;;;;;;;0.93;0.70;;;;;;;16.00;100.00;99891.59;5035317;28;20456;-49
2022/09/10 03:14:08;;;;;;;6.20;1.17;;;;;;;16.04;100.00;99886.94;5040106;28;20455;-50
2022/09/10 03:16:35;;;;;;;2.07;1.90;;;;;;;16.13;100.00;99897.97;5030426;28;20898;-49
2022/09/10 03:19:01;;;;;;;2.37;1.37;;;;;;;16.09;100.00;99893.75;5041212;28;20558;-50
2022/09/10 03:21:28;;;;;;;2.23;1.93;;;;;;;16.06;100.00;99896.63;5043493;28;20449;-50
2022/09/10 03:23:54;;;;;;;6.17;1.90;;;;;;;16.15;100.00;99893.38;5048234;28;20529;-50
2022/09/10 03:26:24;;;;;;;5.00;2.77;;;;;;;16.21;100.00;99900.22;5044794;28;20479;-49
2022/09/10 03:28:51;;;;;;;3.00;1.40;;;;;;;16.14;100.00;99894.34;5031796;28;20495;-49
2022/09/10 03:31:17;;;;;;;6.40;1.63;;;;;;;16.14;100.00;99893.47;5045058;28;20806;-50
2022/09/10 03:33:45;;;;;;;1.40;1.30;;;;;;;16.27;100.00;99883.75;5042545;28;21023;-50
2022/09/10 03:36:14;;;;;;;1.40;1.30;;;;;;;16.29;100.00;99896.13;5047262;28;20475;-49
2022/09/10 03:38:40;;;;;;;0.83;0.83;;;;;;;16.29;100.00;99880.03;5043108;28;20450;-50
2022/09/10 03:41:07;;;;;;;5.43;1.10;;;;;;;16.36;100.00;99888.59;5035736;28;20514;-49
2022/09/10 03:43:34;;;;;;;1.77;1.50;;;;;;;16.42;100.00;99887.38;5043088;28;20507;-50
2022/09/10 03:46:01;;;;;;;2.70;1.97;;;;;;;16.40;100.00;99887.44;5050341;28;20458;-50
2022/09/10 03:48:28;;;;;;;3.00;2.30;;;;;;;16.33;100.00;99880.75;5031758;28;20491;-49
2022/09/10 03:50:55;;;;;;;1.83;1.60;;;;;;;16.24;100.00;99881.28;5048489;28;20451;-50
2022/09/10 03:53:22;;;;;;;1.47;1.27;;;;;;;16.17;100.00;99880.78;5040231;28;20600;-50
2022/09/10 03:55:50;;;;;;;2.10;0.90;;;;;;;16.26;100.00;99887.41;5049947;28;20458;-50
2022/09/10 03:58:17;;;;;;;2.37;1.53;;;;;;;16.27;100.00;99892.66;5039275;28;20918;-51
2022/09/10 04:00:45;;;;;;;2.80;2.13;;;;;;;16.30;100.00;99879.06;5044651;28;20512;-50
2022/09/10 04:03:13;;;;;;;1.80;1.70;;;;;;;16.32;100.00;99875.47;5044319;28;20488;-50
2022/09/10 04:05:42;;;;;;;1.67;1.57;;;;;;;16.30;100.00;99886.25;5045017;28;20462;-50
2022/09/10 04:08:10;;;;;;;1.47;1.37;;;;;;;16.32;100.00;99881.69;5037632;28;21020;-50
2022/09/10 04:10:37;;;;;;;2.97;1.43;;;;;;;16.33;100.00;99883.41;5043753;28;20456;-50
2022/09/10 04:13:04;;;;;;;7.90;2.20;;;;;;;16.33;100.00;99883.41;5050404;28;20454;-49
2022/09/10 04:15:30;;;;;;;1.67;1.53;;;;;;;16.40;100.00;99876.72;5043576;28;20456;-50
2022/09/10 04:17:56;;;;;;;2.37;2.27;;;;;;;16.37;100.00;99876.91;5033522;28;20917;-51
2022/09/10 04:20:24;;;;;;;15.63;2.37;;;;;;;16.36;100.00;99885.91;5050932;28;20451;-50
2022/09/10 04:22:51;;;;;;;2.20;1.70;;;;;;;16.34;100.00;99893.19;5062596;28;21316;-49
2022/09/10 04:25:18;;;;;;;1.67;1.57;;;;;;;16.31;100.00;99885.34;5045029;28;20458;-50
2022/09/10 04:27:45;;;;;;;2.30;1.70;;;;;;;16.34;100.00;99879.78;5046181;28;20490;-50
2022/09/10 04:30:12;;;;;;;3.07;1.70;;;;;;;16.35;100.00;99881.50;5041947;28;21072;-50
2022/09/10 04:32:39;;;;;;;7.93;2.50;;;;;;;16.40;100.00;99875.84;5044216;28;20450;-50
2022/09/10 04:35:06;;;;;;;6.20;2.53;;;;;;;16.40;100.00;99883.91;5042908;28;20505;-51
2022/09/10 04:37:33;;;;;;;3.10;2.47;;;;;;;16.39;100.00;99882.19;5048649;28;20891;-50
2022/09/10 04:40:00;;;;;;;5.00;1.00;;;;;;;16.43;100.00;99875.66;5047888;28;20528;-50
2022/09/10 04:42:27;;;;;;;2.10;2.00;;;;;;;16.41;100.00;99883.81;5037100;28;20545;-51
2022/09/10 04:44:53;;;;;;;2.40;2.10;;;;;;;16.40;100.00;99889.28;5041142;28;20864;-49
2022/09/10 04:47:20;;;;;;;3.30;2.40;;;;;;;16.47;100.00;99883.47;5043418;28;20511;-49
2022/09/10 04:49:46;;;;;;;1.80;1.70;;;;;;;16.51;100.00;99887.69;5039343;28;20839;-49
2022/09/10 04:52:13;;;;;;;1.27;1.17;;;;;;;16.48;100.00;99887.00;5047202;28;20463;-49
2022/09/10 04:54:39;;;;;;;1.47;1.23;;;;;;;16.44;100.00;99888.13;5039809;28;20451;-50
2022/09/10 04:57:06;;;;;;;0.83;0.83;;;;;;;16.46;100.00;99883.56;5036793;28;20486;-49
2022/09/10 04:59:33;;;;;;;1.77;1.67;;;;;;;16.47;100.00;99896.88;5042173;28;20459;-49
2022/09/10 05:02:01;;;;;;;3.13;1.40;;;;;;;16.55;100.00;99896.41;5047073;28;20502;-50
2022/09/10 05:04:28;;;;;;;2.13;1.13;;;;;;;16.55;100.00;99894.59;5040186;28;20493;-50
2022/09/10 05:06:54;;;;;;;1.83;1.73;;;;;;;16.52;100.00;99899.28;5049576;28;20475;-50
2022/09/10 05:09:20;;;;;;;1.50;1.40;;;;;;;16.53;100.00;99903.69;5039498;28;20993;-49
2022/09/10 05:11:47;;;;;;;1.97;1.87;;;;;;;16.49;100.00;99899.47;5036453;28;20881;-50
2022/09/10 05:14:13;;;;;;;3.90;2.93;;;;;;;16.56;100.00;99907.06;5045435;28;20455;-49
2022/09/10 05:16:39;;;;;;;1.53;1.43;;;;;;;16.54;100.00;99900.06;5038251;28;20540;-48
2022/09/10 05:19:06;;;;;;;1.13;1.07;;;;;;;16.53;100.00;99896.50;5044001;28;20451;-50
2022/09/10 05:21:32;;;;;;;1.80;1.20;;;;;;;16.53;100.00;99899.19;5048865;28;20462;-50
2022/09/10 05:23:59;;;;;;;2.33;1.40;;;;;;;16.51;100.00;99894.88;5039123;28;20456;-51
2022/09/10 05:26:26;;;;;;;1.40;1.30;;;;;;;16.51;100.00;99894.88;5043372;28;20475;-50
2022/09/10 05:28:54;;;;;;;1.30;1.20;;;;;;;16.53;100.00;99904.56;5038706;28;20495;-50
2022/09/10 05:31:20;;;;;;;0.90;0.87;;;;;;;16.61;100.00;99908.63;5047133;28;20524;-50
2022/09/10 05:33:47;;;;;;;1.00;0.80;;;;;;;16.47;100.00;99907.63;5044296;28;20451;-50
2022/09/10 05:36:13;;;;;;;1.10;1.07;;;;;;;16.62;100.00;99905.84;5035318;28;20475;-50
2022/09/10 05:38:40;;;;;;;1.50;1.40;;;;;;;16.52;100.00;99910.03;5038069;28;20821;-49
2022/09/10 05:41:09;;;;;;;1.10;1.10;;;;;;;16.59;100.00;99908.72;5042615;28;20511;-50
2022/09/10 05:43:36;;;;;;;2.53;1.10;;;;;;;16.53;100.00;99922.47;5034900;28;20587;-48
2022/09/10 05:46:03;;;;;;;1.07;0.80;;;;;;;16.47;100.00;99925.53;5043965;28;20454;-51
2022/09/10 05:48:30;;;;;;;0.70;0.70;;;;;;;16.83;100.00;99909.06;5044609;28;20502;-50
2022/09/10 05:50:56;;;;;;;0.67;0.67;;;;;;;16.74;100.00;99909.66;5039601;28;20502;-50
2022/09/10 05:53:23;;;;;;;1.73;0.80;;;;;;;16.56;100.00;99912.41;5040944;28;20443;-50
2022/09/10 05:55:49;;;;;;;6.47;1.20;;;;;;;16.58;100.00;99912.31;5043180;28;20460;-50
2022/09/10 05:58:16;;;;;;;11.00;0.70;;;;;;;16.48;100.00;99921.91;5042390;28;20450;-50
2022/09/10 06:00:42;;;;;;;1.27;0.80;;;;;;;16.50;100.00;99914.63;5041103;28;20941;-50
2022/09/10 06:03:09;;;;;;;1.27;0.80;;;;;;;16.44;100.00;99917.63;5042080;28;20529;-50
2022/09/10 06:05:35;;;;;;;4.60;1.47;;;;;;;16.33;100.00;99918.28;5041891;28;20544;-50
2022/09/10 06:08:02;;;;;;;0.73;0.60;;;;;;;16.40;100.00;99921.47;5046414;28;20491;-51
2022/09/10 06:10:34;;;;;;;1.67;1.57;;;;;;;16.46;100.00;99918.44;5029329;28;20517;-50
2022/09/10 06:13:01;;;;;;;5.20;0.90;;;;;;;16.50;100.00;99922.66;5042208;28;20512;-50
2022/09/10 06:15:27;;;;;;;1.27;1.03;;;;;;;16.48;100.00;99925.44;5045342;28;20813;-49
2022/09/10 06:17:54;;;;;;;2.80;1.00;;;;;;;16.54;100.00;99922.38;5035361;28;20533;-50
2022/09/10 06:20:22;;;;;;;1.57;0.60;;;;;;;16.44;100.00;99925.69;5047271;28;20881;-50
2022/09/10 06:22:48;;;;;;;1.47;0.83;;;;;;;16.54;100.00;99933.13;5048104;28;20504;-50
2022/09/10 06:25:15;;;;;;;1.00;0.63;;;;;;;16.69;100.00;99939.44;5043894;28;20512;-50
2022/09/10 06:27:41;;;;;;;1.27;1.03;;;;;;;16.68;100.00;99932.34;5046619;28;20479;-50
2022/09/10 06:30:08;;;;;;;0.70;0.57;;;;;;;16.67;100.00;99935.97;5042507;28;20512;-49
2022/09/10 06:32:36;;;;;;;3.07;1.10;;;;;;;16.65;100.00;99937.84;5046968;28;20447;-50
2022/09/10 06:35:04;;;;;;;0.87;0.67;;;;;;;16.77;100.00;99942.53;5037268;28;20473;-50
2022/09/10 06:37:33;;;;;;;2.83;1.10;;;;;;;16.76;100.00;99948.00;5046749;28;21004;-49
2022/09/10 06:40:00;;;;;;;1.10;0.80;;;;;;;16.99;100.00;99944.78;5037395;28;20442;-49
2022/09/10 06:42:26;;;;;;;0.60;0.50;;;;;;;17.01;100.00;99950.09;5037491;28;20455;-49
2022/09/10 06:44:52;;;;;;;1.00;0.97;;;;;;;16.99;100.00;99941.22;5037737;28;20455;-50
2022/09/10 06:47:19;;;;;;;4.87;1.17;;;;;;;17.41;100.00;99943.13;5045928;28;20473;-50
2022/09/10 06:50:06;;;;;;;0.53;0.43;;;;;;;17.39;100.00;99945.00;5036996;28;20507;-49
2022/09/10 06:52:32;;;;;;;0.50;0.50;;;;;;;17.43;100.00;99943.88;5041718;28;20454;-49
2022/09/10 06:54:58;;;;;;;1.67;1.00;;;;;;;17.51;100.00;99938.03;5031930;28;20513;-49
2022/09/10 06:57:25;;;;;;;0.60;0.47;;;;;;;17.36;100.00;99946.06;5044774;28;20479;-50
2022/09/10 06:59:52;;;;;;;4.30;0.70;;;;;;;17.54;100.00;99943.19;5041680;28;20458;-50
2022/09/10 07:02:18;;;;;;;0.50;0.40;;;;;;;17.74;100.00;99942.84;5051541;28;21029;-49
2022/09/10 07:04:44;;;;;;;7.00;0.77;;;;;;;17.71;100.00;99948.44;5039520;28;20815;-49
2022/09/10 07:07:11;;;;;;;10.63;0.70;;;;;;;17.60;100.00;99951.75;5051032;28;20944;-49
2022/09/10 07:09:37;;;;;;;5.77;1.37;;;;;;;17.67;100.00;99945.00;5051767;28;20528;-50
2022/09/10 07:12:04;;;;;;;1.30;1.10;;;;;;;17.74;100.00;99940.16;5045188;28;20454;-49
2022/09/10 07:14:32;;;;;;;0.77;0.63;;;;;;;17.91;100.00;99944.44;5050889;28;20466;-49
2022/09/10 07:16:58;;;;;;;16.83;1.27;;;;;;;17.89;100.00;99943.69;5051621;28;20474;-50
2022/09/10 07:19:24;;;;;;;5.20;0.80;;;;;;;18.05;100.00;99939.03;5050730;28;20450;-50
2022/09/10 07:21:51;;;;;;;1.00;0.60;;;;;;;18.13;100.00;99944.78;5055501;28;20515;-50
2022/09/10 07:24:18;;;;;;;1.13;1.03;;;;;;;18.20;100.00;99950.63;5045605;28;20447;-49
2022/09/10 07:26:45;;;;;;;0.73;0.73;;;;;;;18.35;100.00;99952.31;5034820;28;20894;-51
2022/09/10 07:29:12;;;;;;;4.40;0.70;;;;;;;18.28;100.00;99948.31;5051740;28;20552;-50
2022/09/10 07:31:40;;;;;;;0.90;0.60;;;;;;;18.15;100.00;99945.56;5032379;28;20466;-50
2022/09/10 07:34:07;;;;;;;0.70;0.60;;;;;;;18.19;100.00;99951.59;5045275;28;20454;-50
2022/09/10 07:36:33;;;;;;;12.87;0.93;;;;;;;18.06;100.00;99952.38;5039204;28;20478;-50
2022/09/10 07:39:00;;;;;;;30.57;1.80;;;;;;;18.25;100.00;99957.44;5038197;28;20447;-50
2022/09/10 07:41:28;;;;;;;1.30;1.13;;;;;;;18.53;100.00;99958.31;5044280;28;20882;-51
2022/09/10 07:43:55;;;;;;;2.03;1.03;;;;;;;18.69;100.00;99964.44;5045203;28;20451;-51
2022/09/10 07:46:24;;;;;;;0.80;0.50;;;;;;;18.72;100.00;99961.53;5039177;28;20544;-51
2022/09/10 07:48:58;;;;;;;2.60;1.10;;;;;;;18.93;100.00;99962.78;5038017;28;21012;-50
2022/09/10 07:51:28;;;;;;;5.33;1.07;;;;;;;19.02;100.00;99966.63;5042820;28;20501;-50
2022/09/10 07:53:56;;;;;;;1.43;0.97;;;;;;;18.62;100.00;99963.94;5047291;28;21909;-51
2022/09/10 07:56:24;;;;;;;1.90;0.63;;;;;;;18.78;100.00;99971.03;5041468;28;20475;-50
2022/09/10 07:58:51;;;;;;;1.90;1.07;;;;;;;18.73;100.00;99973.16;5044531;28;20430;-49
2022/09/10 08:01:21;;;;;;;2.83;1.27;;;;;;;18.88;100.00;99982.88;5041840;28;20451;-52
2022/09/10 08:03:47;;;;;;;0.70;0.70;;;;;;;18.69;100.00;99980.56;5037856;28;20458;-49
2022/09/10 08:06:15;;;;;;;1.63;1.53;;;;;;;18.83;100.00;99979.66;5040056;28;20992;-50
2022/09/10 08:08:42;;;;;;;1.33;0.90;;;;;;;18.74;100.00;99981.13;5044203;28;20545;-50
2022/09/10 08:11:16;;;;;;;9.07;1.10;;;;;;;18.82;100.00;99978.78;5042850;28;20497;-50
2022/09/10 08:13:45;;;;;;;4.30;2.30;;;;;;;18.63;100.00;99994.41;5036714;28;20507;-50
2022/09/10 08:16:15;;;;;;;0.70;0.70;;;;;;;18.44;100.00;99993.91;5039474;28;20479;-49
2022/09/10 08:18:42;;;;;;;2.80;1.10;;;;;;;18.81;100.00;99993.22;5031193;28;21011;-50
2022/09/10 08:21:09;;;;;;;15.70;0.90;;;;;;;18.81;100.00;99995.06;5045087;28;20444;-49
2022/09/10 08:23:38;;;;;;;0.80;0.70;;;;;;;18.77;100.00;99997.06;5057901;28;20870;-50
2022/09/10 08:26:06;;;;;;;1.37;0.63;;;;;;;18.63;100.00;99999.78;5049142;28;20465;-49
2022/09/10 08:28:34;;;;;;;2.63;0.60;;;;;;;18.66;100.00;100012.25;5041145;28;20916;-50
2022/09/10 08:31:06;;;;;;;1.67;0.90;;;;;;;18.81;100.00;100003.13;5046387;28;20426;-49
2022/09/10 08:33:34;;;;;;;0.77;0.60;;;;;;;19.03;100.00;100008.78;5048421;28;20461;-50
2022/09/10 08:36:03;;;;;;;1.53;0.90;;;;;;;19.03;100.00;100008.78;5036998;28;20451;-48
2022/09/10 08:38:34;;;;;;;10.87;0.90;;;;;;;18.98;100.00;100010.94;5040640;28;20867;-49
2022/09/10 08:41:09;;;;;;;2.20;0.97;;;;;;;19.17;100.00;100007.84;5047632;28;20504;-49
2022/09/10 08:43:49;;;;;;;1.63;1.37;;;;;;;19.45;100.00;100010.34;5038904;28;20492;-49
2022/09/10 08:46:25;;;;;;;1.07;0.90;;;;;;;19.44;100.00;100013.16;5036918;28;20907;-49
2022/09/10 08:49:05;;;;;;;1.30;0.60;;;;;;;19.60;100.00;100018.38;5037345;28;20981;-51
2022/09/10 08:51:41;;;;;;;2.60;1.33;;;;;;;19.39;100.00;100018.00;5050224;28;20480;-51
2022/09/10 08:54:18;;;;;;;2.80;1.17;;;;;;;19.27;100.00;100010.78;5045451;28;20451;-51
2022/09/10 08:56:46;;;;;;;0.97;0.87;;;;;;;19.20;100.00;100016.59;5043457;28;20467;-51
2022/09/10 08:59:25;;;;;;;2.80;1.30;;;;;;;19.06;100.00;100013.97;5036603;28;20474;-50
2022/09/10 09:02:03;;;;;;;1.23;0.80;;;;;;;19.11;100.00;100022.59;5046006;28;20887;-50
2022/09/10 09:04:42;;;;;;;10.90;1.10;;;;;;;19.12;100.00;100018.06;5043440;28;20542;-51
2022/09/10 09:07:14;;;;;;;3.50;0.60;;;;;;;19.15;100.00;100013.34;5036487;28;20544;-50
2022/09/10 09:09:40;;;;;;;33.37;1.23;;;;;;;18.98;99.49;100019.00;5049857;28;20491;-51
2022/09/10 09:12:44;;;;;;;5.70;1.13;;;;;;;18.92;100.00;100020.31;5045974;28;21010;-51
2022/09/10 09:15:43;;;;;;;7.43;0.40;;;;;;;18.86;100.00;100025.22;5036370;28;20496;-50
2022/09/10 09:18:14;;;;;;;0.50;0.40;;;;;;;18.86;100.00;100036.00;5036294;28;21007;-51
2022/09/10 09:21:10;;;;;;;1.10;1.00;;;;;;;18.51;100.00;100027.53;5049374;28;20466;-50
2022/09/10 09:23:55;;;;;;;2.10;1.07;;;;;;;18.28;100.00;100031.72;5042012;28;20505;-50
2022/09/10 09:26:44;;;;;;;0.60;0.47;;;;;;;18.35;100.00;100027.66;5044907;28;20503;-51
2022/09/10 09:29:17;;;;;;;12.37;0.93;;;;;;;18.51;100.00;100033.78;5040381;28;20483;-52
2022/09/10 09:31:58;;;;;;;9.53;0.60;;;;;;;18.63;100.00;100037.47;5034486;28;20450;-53
2022/09/10 09:34:54;;;;;;;0.60;0.40;;;;;;;18.57;100.00;100030.69;5047438;28;20450;-51
2022/09/10 09:37:27;;;;;;;0.50;0.47;;;;;;;18.75;100.00;100036.72;5026929;28;20546;-51
2022/09/10 09:40:12;;;;;;;2.60;0.60;;;;;;;18.92;100.00;100043.69;5029820;28;20444;-51
2022/09/10 09:42:51;;;;;;;3.10;0.40;;;;;;;18.78;100.00;100041.06;5045719;28;20890;-51
2022/09/10 09:45:33;;;;;;;2.37;0.73;;;;;;;18.62;100.00;100042.00;5042154;28;21006;-52
2022/09/10 09:48:01;;;;;;;1.67;0.70;;;;;;;18.60;100.00;100040.38;5048679;28;20463;-52
2022/09/10 09:50:30;;;;;;;10.87;1.50;;;;;;;18.58;100.00;100040.50;5049116;28;20461;-52
2022/09/10 09:52:56;;;;;;;3.83;0.57;;;;;;;18.61;100.00;100042.09;5049193;28;20450;-52
2022/09/10 09:55:26;;;;;;;0.80;0.40;;;;;;;18.64;100.00;100048.22;5046404;28;20459;-52
2022/09/10 09:58:18;;;;;;;1.43;0.83;;;;;;;18.54;100.00;100040.81;5049168;28;20529;-51
2022/09/10 10:00:44;;;;;;;8.63;1.33;;;;;;;18.49;100.00;100038.38;5035822;28;20821;-51
2022/09/10 10:03:16;;;;;;;1.50;0.63;;;;;;;18.75;100.00;100038.53;5037100;28;20451;-52
2022/09/10 10:05:43;;;;;;;1.43;0.60;;;;;;;18.87;100.00;100037.72;5031814;28;20459;-53
2022/09/10 10:08:32;;;;;;;0.60;0.50;;;;;;;18.91;100.00;100039.22;5042196;28;20501;-52
2022/09/10 10:11:00;;;;;;;0.77;0.60;;;;;;;18.83;100.00;100042.47;5029183;28;20451;-51
2022/09/10 10:13:50;;;;;;;1.00;0.90;;;;;;;18.82;100.00;100038.03;5042246;28;20952;-53
2022/09/10 10:16:37;;;;;;;0.70;0.50;;;;;;;18.85;100.00;100034.28;5041909;28;20478;-52
2022/09/10 10:19:31;;;;;;;1.03;0.87;;;;;;;18.89;100.00;100035.78;5046574;28;20810;-52
2022/09/10 10:22:19;;;;;;;1.47;0.90;;;;;;;19.06;100.00;100024.75;5049547;28;20451;-52
2022/09/10 10:24:48;;;;;;;0.73;0.43;;;;;;;18.89;100.00;100030.41;5038904;28;20447;-52
2022/09/10 10:27:15;;;;;;;0.70;0.40;;;;;;;19.32;100.00;100027.47;5038870;28;20532;-52
2022/09/10 10:29:51;;;;;;;0.60;0.40;;;;;;;19.38;100.00;100024.38;5036644;28;20534;-52
2022/09/10 10:32:19;;;;;;;0.93;0.40;;;;;;;19.23;100.00;100026.28;5043477;28;20986;-52
2022/09/10 10:35:15;;;;;;;1.00;0.57;;;;;;;19.39;100.00;100026.09;5036933;28;20447;-52
2022/09/10 10:37:55;;;;;;;3.23;0.57;;;;;;;19.51;100.00;100020.72;5036957;28;20474;-52
2022/09/10 10:40:32;;;;;;;5.67;0.60;;;;;;;19.66;100.00;100004.47;5046864;28;20508;-52
2022/09/10 10:43:26;;;;;;;0.60;0.37;;;;;;;19.79;100.00;100013.41;5045617;28;20941;-52
2022/09/10 10:46:03;;;;;;;0.57;0.50;;;;;;;19.97;100.00;100017.47;5050456;28;20911;-52
2022/09/10 10:49:14;;;;;;;0.80;0.40;;;;;;;20.11;99.95;100019.19;5042343;28;21055;-51
2022/09/10 10:51:58;;;;;;;0.67;0.43;;;;;;;20.11;98.67;100011.09;5039068;28;20447;-52
2022/09/10 10:54:42;;;;;;;1.57;0.50;;;;;;;20.28;97.94;100015.25;5040606;28;21002;-52
2022/09/10 10:57:15;;;;;;;0.50;0.30;;;;;;;20.30;97.96;100022.28;5038916;28;20477;-52
2022/09/10 11:00:06;;;;;;;1.47;0.60;;;;;;;19.90;100.00;100016.22;5041506;28;20857;-51
2022/09/10 11:02:42;;;;;;;4.40;0.70;;;;;;;20.20;99.05;100026.63;5032734;28;20472;-52
2022/09/10 11:05:26;;;;;;;11.00;0.83;;;;;;;20.47;96.90;100012.97;5046149;28;20450;-52
2022/09/10 11:07:53;;;;;;;0.50;0.30;;;;;;;20.57;97.46;100016.72;5039324;28;20541;-51
2022/09/10 11:10:28;;;;;;;0.50;0.40;;;;;;;20.67;95.79;100014.19;5045211;28;20462;-51
2022/09/10 11:13:11;;;;;;;1.07;0.50;;;;;;;20.48;95.28;100009.28;5045138;28;20446;-52
2022/09/10 11:15:54;;;;;;;0.60;0.40;;;;;;;20.52;97.17;99999.97;5032319;28;20854;-52
2022/09/10 11:18:32;;;;;;;0.50;0.30;;;;;;;20.60;95.43;100003.00;5035995;28;20440;-52
2022/09/10 11:21:13;;;;;;;0.40;0.30;;;;;;;20.88;93.80;99999.06;5044155;28;20930;-52
2022/09/10 11:23:44;;;;;;;0.60;0.40;;;;;;;20.83;93.48;99995.88;5042761;28;20882;-52
2022/09/10 11:26:53;;;;;;;0.50;0.30;;;;;;;20.79;91.08;99997.06;5045105;28;20478;-51
2022/09/10 11:29:26;;;;;;;0.50;0.30;;;;;;;20.83;93.11;99992.28;5025383;28;20518;-52
2022/09/10 11:32:27;;;;;;;0.60;0.40;;;;;;;20.88;93.03;99992.81;5040460;28;20462;-52
2022/09/10 11:35:10;;;;;;;0.60;0.40;;;;;;;20.76;92.98;99994.59;5023873;28;20444;-52
2022/09/10 11:37:56;;;;;;;1.80;0.30;;;;;;;20.73;93.75;99988.56;5037812;28;20926;-51
2022/09/10 11:40:45;;;;;;;0.50;0.30;;;;;;;20.78;94.21;99989.94;5048057;28;20425;-51
2022/09/10 11:43:32;;;;;;;0.50;0.30;;;;;;;20.68;93.39;99983.47;5046254;28;20465;-52
2022/09/10 11:46:08;;;;;;;1.90;1.80;;;;;;;20.97;93.25;99990.28;5038024;28;20462;-51